< < Back
Terminal Aerodrome Forecast


Current Version              Previous Versions:   1  2  3  4  5  6  7  8  9  

Terminal Aerodrome Forecast

148
FTUS44 KMRX 261851 AAA
TAFCHA
TAF AMD
KCHA 261851Z 2619/2718 15006KT P6SM VCTS SCT050CB BKN120
     FM270200 00000KT P6SM BKN250
     FM271400 19003KT P6SM SCT040 BKN150
     FM271700 20004KT P6SM VCTS BKN050CB=

Latest METAR

010
SAUS80 KWBC 262000 RRA
MTRCHA
METAR KCHA 261953Z 15009KT 10SM SCT050 BKN065TCU BKN090 BKN150 33/20
A3008 RMK AO2 SLP177 TCU N-NE CB DSNT SE T03330200


USA.gov is the U.S. government's official web portal to all federal, state and local government web resources and services.